Time;durP1;ratioP1;P1;durP2;ratioP2;P2;SDS_P1;SDS_P2;PMS_P1;PMS_P2;Temp;Humidity;BMP_temperature;BMP_pressure;BME280_temperature;BME280_humidity;BME280_pressure;Samples;Min_cycle;Max_cycle;Signal;HPM_P1;HPM_P2
2022/05/31 00:01:05;;;;;;;0.73;0.30;;;18.10;60.40;;;;;;4974113;28;20031;-67
2022/05/31 00:03:31;;;;;;;0.50;0.40;;;18.20;60.50;;;;;;4972892;28;20494;-67
2022/05/31 00:05:56;;;;;;;0.52;0.40;;;18.20;60.50;;;;;;4972520;28;20561;-67
2022/05/31 00:08:22;;;;;;;0.40;0.40;;;18.20;60.60;;;;;;4973789;28;20497;-67
2022/05/31 00:10:47;;;;;;;1.20;0.30;;;18.20;60.40;;;;;;4973894;28;20114;-67
2022/05/31 00:13:13;;;;;;;0.40;0.30;;;18.20;60.40;;;;;;4974253;28;20098;-67
2022/05/31 00:15:39;;;;;;;0.40;0.30;;;18.20;60.40;;;;;;4973911;28;20034;-67
2022/05/31 00:18:05;;;;;;;0.75;0.40;;;18.20;60.40;;;;;;4973912;28;20097;-67
2022/05/31 00:20:30;;;;;;;0.30;0.30;;;18.20;60.30;;;;;;4974040;28;20113;-67
2022/05/31 00:22:56;;;;;;;0.75;0.30;;;18.20;60.50;;;;;;4972674;28;20019;-67
2022/05/31 00:25:22;;;;;;;0.63;0.40;;;18.20;60.30;;;;;;4972777;28;20027;-66
2022/05/31 00:27:47;;;;;;;0.80;0.47;;;18.30;60.40;;;;;;4973626;28;20026;-67
2022/05/31 00:30:13;;;;;;;0.90;0.60;;;18.30;60.20;;;;;;4956657;28;20023;-67
2022/05/31 00:32:42;;;;;;;0.30;0.30;;;18.30;60.40;;;;;;4972468;28;20022;-67
2022/05/31 00:35:18;;;;;;;0.35;0.35;;;18.30;60.40;;;;;;4972504;28;20474;-67
2022/05/31 00:37:44;;;;;;;0.98;0.45;;;18.30;60.40;;;;;;4973388;28;20022;-67
2022/05/31 00:40:11;;;;;;;1.13;0.50;;;18.30;60.30;;;;;;4972586;28;20033;-67
2022/05/31 00:43:05;;;;;;;0.32;0.30;;;18.30;60.40;;;;;;4973643;28;20513;-67
2022/05/31 00:45:43;;;;;;;0.40;0.30;;;18.30;60.40;;;;;;4973058;28;20038;-67
2022/05/31 00:48:23;;;;;;;0.93;0.50;;;18.30;60.40;;;;;;4972445;28;20499;-67
2022/05/31 00:50:54;;;;;;;0.43;0.40;;;18.30;60.40;;;;;;4972145;28;20066;-67
2022/05/31 00:53:26;;;;;;;1.48;0.50;;;18.30;60.20;;;;;;4973663;28;20050;-67
2022/05/31 00:55:58;;;;;;;1.02;0.50;;;18.40;60.40;;;;;;4972675;28;20027;-67
2022/05/31 00:58:27;;;;;;;0.30;0.30;;;18.40;60.50;;;;;;4956297;28;20066;-67
2022/05/31 01:00:53;;;;;;;0.40;0.40;;;18.40;60.50;;;;;;4972256;28;20474;-67
2022/05/31 01:03:19;;;;;;;0.60;0.50;;;18.40;60.40;;;;;;4972441;28;20038;-67
2022/05/31 01:05:45;;;;;;;1.00;0.35;;;18.40;60.50;;;;;;4971818;28;20487;-67
2022/05/31 01:08:11;;;;;;;1.27;0.50;;;18.40;60.60;;;;;;4972252;28;20110;-67
2022/05/31 01:10:37;;;;;;;0.93;0.38;;;18.40;60.60;;;;;;4972256;28;20110;-67
2022/05/31 01:13:03;;;;;;;0.57;0.30;;;18.40;60.60;;;;;;4956115;28;20117;-67
2022/05/31 01:15:28;;;;;;;0.68;0.40;;;18.40;60.60;;;;;;4972309;28;20489;-67
2022/05/31 01:17:54;;;;;;;0.43;0.25;;;18.40;60.60;;;;;;4973261;28;20027;-67
2022/05/31 01:20:20;;;;;;;1.08;0.50;;;18.40;60.50;;;;;;4976993;28;20074;-67
2022/05/31 01:22:51;;;;;;;1.17;0.40;;;18.50;60.50;;;;;;4975907;28;20070;-67
2022/05/31 01:26:04;;;;;;;0.43;0.30;;;18.50;60.50;;;;;;4975929;28;20058;-67
2022/05/31 01:28:53;;;;;;;0.32;0.32;;;18.50;60.50;;;;;;4958722;28;20131;-67
2022/05/31 01:31:24;;;;;;;0.40;0.38;;;18.50;60.50;;;;;;4958887;28;20146;-67
2022/05/31 01:34:09;;;;;;;1.20;0.43;;;18.50;60.40;;;;;;4958392;28;20110;-67
2022/05/31 01:36:45;;;;;;;0.22;0.22;;;18.50;60.50;;;;;;4960385;28;20078;-67
2022/05/31 01:39:32;;;;;;;0.40;0.40;;;18.50;60.50;;;;;;4958637;28;20040;-67
2022/05/31 01:42:28;;;;;;;0.52;0.40;;;18.50;60.40;;;;;;4960902;28;20023;-67
2022/05/31 01:45:26;;;;;;;0.60;0.30;;;18.50;60.40;;;;;;4960841;28;20039;-67
2022/05/31 01:47:54;;;;;;;0.50;0.30;;;18.50;60.40;;;;;;4954788;28;20485;-67
2022/05/31 01:50:20;;;;;;;0.32;0.32;;;18.50;60.40;;;;;;4958193;28;20122;-67
2022/05/31 01:52:46;;;;;;;0.30;0.30;;;18.50;60.40;;;;;;4958338;28;20527;-67
2022/05/31 01:55:11;;;;;;;0.98;0.40;;;18.50;61.30;;;;;;4958441;28;20558;-67
2022/05/31 01:57:37;;;;;;;0.55;0.28;;;18.50;61.40;;;;;;4958239;28;20106;-67
2022/05/31 02:00:08;;;;;;;0.43;0.38;;;18.50;60.40;;;;;;4958252;28;20031;-67
2022/05/31 02:02:34;;;;;;;0.45;0.40;;;18.50;60.40;;;;;;4958243;28;20533;-67
2022/05/31 02:04:59;;;;;;;0.38;0.38;;;18.50;60.30;;;;;;4975909;28;20049;-67
2022/05/31 02:07:25;;;;;;;0.40;0.40;;;18.50;60.30;;;;;;4976428;28;20027;-67
2022/05/31 02:09:52;;;;;;;0.35;0.35;;;18.50;60.30;;;;;;4976197;28;20045;-67
2022/05/31 02:12:18;;;;;;;0.85;0.20;;;18.50;60.30;;;;;;4975095;28;20042;-67
2022/05/31 02:14:44;;;;;;;0.68;0.40;;;18.60;60.30;;;;;;4975013;28;20081;-67
2022/05/31 02:17:10;;;;;;;0.38;0.38;;;18.60;60.30;;;;;;4975105;28;20023;-67
2022/05/31 02:19:35;;;;;;;0.43;0.40;;;18.60;61.40;;;;;;4975753;28;20529;-67
2022/05/31 02:22:04;;;;;;;0.40;0.30;;;18.60;60.30;;;;;;4974894;28;20438;-67
2022/05/31 02:24:30;;;;;;;0.30;0.30;;;18.60;60.30;;;;;;4975982;28;20015;-67
2022/05/31 02:26:55;;;;;;;1.00;0.40;;;18.60;60.30;;;;;;4974620;28;20074;-67
2022/05/31 02:29:24;;;;;;;0.40;0.40;;;18.60;60.40;;;;;;4974428;28;20035;-67
2022/05/31 02:31:50;;;;;;;1.17;0.30;;;18.60;60.50;;;;;;4974502;28;20023;-67
2022/05/31 02:34:18;;;;;;;0.30;0.20;;;18.60;60.50;;;;;;4974573;28;20023;-67
2022/05/31 02:36:44;;;;;;;0.45;0.32;;;18.60;60.50;;;;;;4975678;28;20034;-67
2022/05/31 02:39:09;;;;;;;0.43;0.30;;;18.60;60.40;;;;;;4975754;28;20030;-67
2022/05/31 02:41:35;;;;;;;0.60;0.30;;;18.60;60.40;;;;;;4975679;28;20027;-67
2022/05/31 02:44:01;;;;;;;0.52;0.40;;;18.60;60.30;;;;;;4974581;28;20022;-67
2022/05/31 02:46:27;;;;;;;0.63;0.30;;;18.60;60.40;;;;;;4958151;28;20104;-67
2022/05/31 02:48:53;;;;;;;0.32;0.30;;;18.60;60.40;;;;;;4975384;28;20118;-67
2022/05/31 02:51:19;;;;;;;0.75;0.40;;;18.60;60.50;;;;;;4975738;28;20039;-67
2022/05/31 02:53:44;;;;;;;1.67;0.47;;;18.60;60.50;;;;;;4974110;28;20042;-67
2022/05/31 02:56:10;;;;;;;0.95;0.50;;;18.60;60.50;;;;;;4975517;28;20035;-67
2022/05/31 02:58:36;;;;;;;0.47;0.30;;;18.60;60.50;;;;;;4957955;28;20027;-67
2022/05/31 03:01:02;;;;;;;0.75;0.38;;;18.60;60.40;;;;;;4975023;28;20030;-67
2022/05/31 03:03:27;;;;;;;0.50;0.40;;;18.60;60.50;;;;;;4974076;28;20022;-67
2022/05/31 03:05:53;;;;;;;0.77;0.20;;;18.60;60.50;;;;;;4968939;28;20106;-67
2022/05/31 03:08:19;;;;;;;1.45;0.30;;;18.60;60.50;;;;;;4954769;29;20509;-67
2022/05/31 03:10:50;;;;;;;0.50;0.30;;;18.60;60.50;;;;;;4955804;29;20101;-67
2022/05/31 03:13:18;;;;;;;0.30;0.30;;;18.60;60.50;;;;;;4954763;29;20094;-67
2022/05/31 03:15:43;;;;;;;0.52;0.30;;;18.60;61.50;;;;;;4955494;29;20027;-67
2022/05/31 03:18:11;;;;;;;1.75;0.30;;;18.60;60.60;;;;;;4955717;29;20545;-67
2022/05/31 03:20:44;;;;;;;0.40;0.40;;;18.60;60.60;;;;;;4955621;29;20027;-67
2022/05/31 03:23:21;;;;;;;0.30;0.30;;;18.60;60.60;;;;;;4954541;29;20454;-67
2022/05/31 03:25:47;;;;;;;0.40;0.40;;;18.60;60.50;;;;;;4954239;29;20023;-66
2022/05/31 03:28:13;;;;;;;1.38;0.45;;;18.60;60.60;;;;;;4954356;29;20051;-66
2022/05/31 03:30:39;;;;;;;0.30;0.30;;;18.60;60.60;;;;;;4954099;29;20058;-67
2022/05/31 03:33:08;;;;;;;1.23;0.45;;;18.60;60.60;;;;;;4954099;29;20027;-66
2022/05/31 03:35:34;;;;;;;0.30;0.30;;;18.60;60.60;;;;;;4954225;29;20561;-66
2022/05/31 03:37:59;;;;;;;0.93;0.43;;;18.60;60.60;;;;;;4955494;29;20118;-66
2022/05/31 03:43:09;;;;;;;0.68;0.47;;;18.60;60.50;;;;;;4955366;29;20031;-66
2022/05/31 03:45:36;;;;;;;0.85;0.50;;;18.60;60.60;;;;;;4954738;29;20422;-67
2022/05/31 03:48:02;;;;;;;0.47;0.30;;;18.60;60.50;;;;;;4955043;29;20015;-67
2022/05/31 03:50:28;;;;;;;2.17;0.52;;;18.60;60.50;;;;;;4953945;29;20086;-67
2022/05/31 03:52:53;;;;;;;0.40;0.40;;;18.60;60.60;;;;;;4954959;29;20031;-67
2022/05/31 03:55:19;;;;;;;0.80;0.70;;;18.60;60.60;;;;;;4954025;29;20053;-67
2022/05/31 03:57:47;;;;;;;0.30;0.30;;;18.60;60.60;;;;;;4954850;29;20039;-67
2022/05/31 04:00:13;;;;;;;0.47;0.40;;;18.60;60.60;;;;;;4969338;28;20037;-67
2022/05/31 04:02:38;;;;;;;0.47;0.40;;;18.60;60.70;;;;;;4974119;28;20453;-67
2022/05/31 04:05:05;;;;;;;1.58;0.60;;;18.60;60.60;;;;;;4973989;28;20027;-67
2022/05/31 04:07:30;;;;;;;1.45;0.63;;;18.60;60.70;;;;;;4973869;28;20023;-67
2022/05/31 04:09:56;;;;;;;8.43;0.80;;;18.60;60.70;;;;;;4973912;28;20027;-68
2022/05/31 04:12:21;;;;;;;0.95;0.60;;;18.60;60.80;;;;;;4974055;28;20027;-67
2022/05/31 04:14:47;;;;;;;1.40;0.50;;;18.60;60.80;;;;;;4972749;28;20073;-67
2022/05/31 04:17:13;;;;;;;2.03;0.40;;;18.60;60.90;;;;;;4974176;28;20019;-67
2022/05/31 04:19:38;;;;;;;2.20;0.77;;;18.60;60.90;;;;;;4973887;28;20026;-68
2022/05/31 04:22:04;;;;;;;1.27;0.60;;;18.60;61.00;;;;;;4973824;28;20102;-68
2022/05/31 04:24:29;;;;;;;3.35;0.50;;;18.60;61.10;;;;;;4973838;28;20392;-67
2022/05/31 04:26:55;;;;;;;0.73;0.60;;;18.60;61.00;;;;;;4973789;28;20572;-67
2022/05/31 04:29:21;;;;;;;1.83;0.63;;;18.60;61.00;;;;;;4973827;28;20131;-67
2022/05/31 04:31:48;;;;;;;1.00;0.60;;;18.60;61.20;;;;;;4972618;28;20049;-67
2022/05/31 04:34:14;;;;;;;1.52;0.47;;;18.60;61.10;;;;;;4973546;28;20049;-67
2022/05/31 04:36:40;;;;;;;2.30;0.50;;;18.60;61.20;;;;;;4972520;28;20463;-67
2022/05/31 04:39:05;;;;;;;0.73;0.50;;;18.60;61.20;;;;;;4972495;28;20126;-67
2022/05/31 04:41:31;;;;;;;0.85;0.40;;;18.60;61.20;;;;;;4972671;28;20102;-67
2022/05/31 04:43:58;;;;;;;0.70;0.50;;;18.60;61.30;;;;;;4973394;28;20449;-67
2022/05/31 04:46:25;;;;;;;0.50;0.50;;;18.50;61.30;;;;;;4972186;28;20374;-67
2022/05/31 04:48:55;;;;;;;0.73;0.60;;;18.60;61.30;;;;;;4956621;28;20113;-67
2022/05/31 04:51:21;;;;;;;1.13;0.60;;;18.60;61.30;;;;;;4973657;28;20030;-67
2022/05/31 04:53:46;;;;;;;0.82;0.52;;;18.60;61.40;;;;;;4976623;28;20030;-67
2022/05/31 04:56:14;;;;;;;1.40;0.70;;;18.60;61.40;;;;;;4977383;28;20441;-67
2022/05/31 04:58:39;;;;;;;2.13;0.63;;;18.60;61.40;;;;;;4976106;28;20030;-67
2022/05/31 05:01:08;;;;;;;0.63;0.60;;;18.60;61.40;;;;;;4977539;28;20544;-67
2022/05/31 05:03:34;;;;;;;6.03;0.60;;;18.60;61.40;;;;;;4976500;28;20026;-67
2022/05/31 05:06:01;;;;;;;0.88;0.60;;;18.60;61.40;;;;;;4975913;28;20050;-67
2022/05/31 05:08:27;;;;;;;5.10;0.60;;;18.60;61.50;;;;;;4977434;28;20104;-67
2022/05/31 05:10:52;;;;;;;1.65;0.52;;;18.60;61.40;;;;;;4977352;28;20488;-67
2022/05/31 05:13:18;;;;;;;2.80;0.57;;;18.50;61.40;;;;;;4977109;28;20118;-67
2022/05/31 05:15:44;;;;;;;1.80;0.50;;;18.60;61.50;;;;;;4977210;28;20023;-67
2022/05/31 05:18:09;;;;;;;0.60;0.38;;;18.60;61.50;;;;;;4977213;28;20151;-67
2022/05/31 05:20:40;;;;;;;1.08;0.60;;;18.60;61.60;;;;;;4977331;28;20026;-67
2022/05/31 05:23:06;;;;;;;4.65;0.60;;;18.50;61.60;;;;;;4977002;28;20030;-67
2022/05/31 05:25:32;;;;;;;2.15;0.70;;;18.60;61.70;;;;;;4976959;28;20027;-67
2022/05/31 05:30:38;;;;;;;0.77;0.60;;;18.60;61.70;;;;;;4973620;28;20824;-67
2022/05/31 05:30:48;;;;;;;3.45;0.75;;;18.50;61.70;;;;;;4972665;28;20054;-67
2022/05/31 05:33:13;;;;;;;0.73;0.73;;;18.60;61.70;;;;;;4973591;28;20042;-67
2022/05/31 05:35:39;;;;;;;0.60;0.60;;;18.60;61.70;;;;;;4973765;28;20429;-67
2022/05/31 05:38:06;;;;;;;0.60;0.47;;;18.60;61.90;;;;;;4972380;28;20125;-67
2022/05/31 05:40:32;;;;;;;1.13;0.63;;;18.60;61.80;;;;;;4973646;28;20014;-67
2022/05/31 05:42:58;;;;;;;0.80;0.60;;;18.60;61.80;;;;;;4956482;28;20030;-67
2022/05/31 05:45:24;;;;;;;1.73;0.70;;;18.60;61.90;;;;;;4973556;28;20027;-67
2022/05/31 05:47:51;;;;;;;2.17;0.63;;;18.60;61.80;;;;;;4972617;28;20552;-67
2022/05/31 05:50:18;;;;;;;5.80;0.65;;;18.60;61.80;;;;;;4973630;28;20014;-67
2022/05/31 05:52:49;;;;;;;0.68;0.60;;;18.60;61.80;;;;;;4973271;28;20093;-67
2022/05/31 05:55:16;;;;;;;0.60;0.50;;;18.60;61.70;;;;;;4959428;28;20061;-67
2022/05/31 05:57:41;;;;;;;0.63;0.60;;;18.60;61.90;;;;;;4975496;28;20030;-67
2022/05/31 06:00:08;;;;;;;2.28;0.80;;;18.60;61.80;;;;;;4975016;28;20035;-67
2022/05/31 06:02:33;;;;;;;3.38;2.60;;;18.50;61.80;;;;;;4976482;28;20027;-67
2022/05/31 06:05:03;;;;;;;3.33;2.63;;;18.50;59.00;;;;;;4974179;28;20018;-67
2022/05/31 06:07:40;;;;;;;4.35;3.13;;;18.30;58.10;;;;;;4975096;28;20031;-66
2022/05/31 06:10:19;;;;;;;4.90;3.40;;;18.10;57.60;;;;;;4976032;28;20038;-67
2022/05/31 06:12:53;;;;;;;3.60;3.13;;;18.00;57.50;;;;;;4959005;28;20066;-67
2022/05/31 06:15:25;;;;;;;3.78;3.30;;;18.00;58.70;;;;;;4974597;28;20107;-67
2022/05/31 06:17:54;;;;;;;3.78;3.25;;;17.90;57.70;;;;;;4973503;28;20029;-67
2022/05/31 06:20:19;;;;;;;4.38;2.95;;;17.80;57.60;;;;;;4973358;28;20081;-67
2022/05/31 06:22:45;;;;;;;3.58;2.90;;;17.80;58.00;;;;;;4973452;28;20454;-67
2022/05/31 06:25:16;;;;;;;4.70;3.15;;;17.70;58.10;;;;;;4973292;28;20046;-66
2022/05/31 06:27:43;;;;;;;4.40;3.00;;;17.70;58.30;;;;;;4974903;28;20102;-67
2022/05/31 06:30:11;;;;;;;5.13;2.90;;;17.70;58.20;;;;;;4975683;28;20023;-67
2022/05/31 06:32:37;;;;;;;9.13;3.17;;;17.60;58.50;;;;;;4976059;28;20030;-67
2022/05/31 06:35:02;;;;;;;7.70;3.85;;;17.60;58.60;;;;;;4953473;28;20383;-68
2022/05/31 06:37:30;;;;;;;10.35;4.10;;;17.60;59.20;;;;;;4953599;29;20027;-68
2022/05/31 06:39:56;;;;;;;9.50;3.33;;;17.60;59.20;;;;;;4954330;29;20093;-67
2022/05/31 06:42:22;;;;;;;7.80;3.40;;;17.50;60.00;;;;;;4969447;28;20477;-67
2022/05/31 06:44:47;;;;;;;6.82;3.65;;;17.50;60.10;;;;;;4969590;28;20074;-67
2022/05/31 06:47:13;;;;;;;6.95;3.72;;;17.50;60.60;;;;;;4954420;29;20135;-68
2022/05/31 06:49:39;;;;;;;8.13;3.35;;;17.40;60.70;;;;;;4970415;28;20082;-67
2022/05/31 06:57:40;;;;;;;7.07;2.63;;;17.40;61.30;;;;;;4974281;28;20401;-67
2022/05/31 07:00:07;;;;;;;6.07;3.10;;;17.30;61.40;;;;;;4973858;28;20050;-67
2022/05/31 07:02:33;;;;;;;11.38;3.20;;;17.30;61.50;;;;;;4975455;28;20498;-68
2022/05/31 07:04:59;;;;;;;5.28;2.58;;;17.30;61.60;;;;;;4974029;28;20102;-68
2022/05/31 07:07:25;;;;;;;7.15;2.75;;;17.40;61.40;;;;;;4974909;28;20110;-67
2022/05/31 07:09:51;;;;;;;7.15;2.42;;;17.30;61.40;;;;;;4975261;28;20058;-68
2022/05/31 07:12:17;;;;;;;5.97;2.55;;;17.30;61.30;;;;;;4973682;28;20555;-67
2022/05/31 07:14:42;;;;;;;6.32;2.88;;;17.30;61.20;;;;;;4975208;28;20027;-67
2022/05/31 07:17:08;;;;;;;5.88;2.28;;;17.30;61.50;;;;;;4975318;28;20509;-67
2022/05/31 07:19:34;;;;;;;4.57;2.30;;;17.30;61.40;;;;;;4974815;28;20019;-67
2022/05/31 07:22:00;;;;;;;6.22;2.00;;;17.20;60.90;;;;;;4974670;28;20105;-67
2022/05/31 07:24:26;;;;;;;3.55;1.95;;;17.20;61.00;;;;;;4974672;28;20026;-68
2022/05/31 07:26:52;;;;;;;5.15;1.70;;;17.30;61.00;;;;;;4973412;28;20042;-67
2022/05/31 07:29:18;;;;;;;6.65;1.95;;;17.30;60.60;;;;;;4974768;28;20027;-67
2022/05/31 07:31:44;;;;;;;4.82;1.80;;;17.20;60.60;;;;;;4957672;28;20070;-67
2022/05/31 07:34:15;;;;;;;3.53;1.60;;;17.30;60.10;;;;;;4974529;28;20038;-67
2022/05/31 07:36:41;;;;;;;2.67;1.33;;;17.20;60.50;;;;;;4973412;28;20031;-68
2022/05/31 07:39:15;;;;;;;3.50;1.10;;;17.20;60.60;;;;;;4973257;28;20034;-67
2022/05/31 07:41:41;;;;;;;2.92;0.90;;;17.20;59.90;;;;;;4974551;28;20023;-67
2022/05/31 07:44:06;;;;;;;1.55;0.88;;;17.20;58.80;;;;;;4974608;28;20019;-67
2022/05/31 07:46:32;;;;;;;3.70;1.10;;;17.20;57.70;;;;;;4973204;28;20046;-67
2022/05/31 07:48:59;;;;;;;3.17;1.00;;;17.20;57.80;;;;;;4973112;28;20031;-68
2022/05/31 07:51:25;;;;;;;2.55;1.27;;;17.20;58.30;;;;;;4956943;28;20061;-67
2022/05/31 07:53:51;;;;;;;3.03;1.10;;;17.20;58.30;;;;;;4973370;28;20027;-68
2022/05/31 07:56:17;;;;;;;1.27;1.17;;;17.10;58.00;;;;;;4972942;28;20109;-67
2022/05/31 07:58:43;;;;;;;2.38;0.90;;;17.20;58.10;;;;;;4974177;28;20118;-67
2022/05/31 08:01:10;;;;;;;4.43;1.13;;;17.20;58.00;;;;;;4973084;28;20101;-67
2022/05/31 08:03:37;;;;;;;5.85;1.10;;;17.20;57.50;;;;;;4973054;28;20026;-67
2022/05/31 08:06:08;;;;;;;2.95;0.90;;;17.20;58.00;;;;;;4972766;28;20516;-67
2022/05/31 08:08:34;;;;;;;2.47;1.33;;;17.20;57.70;;;;;;4956979;28;20027;-67
2022/05/31 08:11:12;;;;;;;2.90;0.93;;;17.20;57.40;;;;;;4974088;28;20030;-67
2022/05/31 08:13:38;;;;;;;1.02;0.70;;;17.20;56.80;;;;;;4974012;28;20094;-67
2022/05/31 08:16:04;;;;;;;1.63;0.80;;;17.10;56.50;;;;;;4972931;28;20046;-68
2022/05/31 08:18:29;;;;;;;1.92;1.02;;;17.20;56.40;;;;;;4974080;28;20093;-68
2022/05/31 08:21:02;;;;;;;3.40;0.50;;;17.10;56.20;;;;;;4973644;28;20488;-67
2022/05/31 08:23:28;;;;;;;1.98;0.63;;;17.10;55.50;;;;;;4972842;28;20019;-68
2022/05/31 08:25:54;;;;;;;1.42;0.68;;;17.10;55.90;;;;;;4972769;28;20026;-68
2022/05/31 08:28:20;;;;;;;1.58;0.75;;;17.10;56.00;;;;;;4972117;28;20081;-67
2022/05/31 08:30:47;;;;;;;3.67;1.02;;;17.10;55.70;;;;;;4972709;28;20086;-67
2022/05/31 08:33:12;;;;;;;1.48;0.65;;;17.20;55.30;;;;;;4972636;28;20374;-68
2022/05/31 08:35:38;;;;;;;2.40;0.80;;;17.10;56.40;;;;;;4973521;28;20027;-67
2022/05/31 08:38:04;;;;;;;2.15;0.70;;;17.10;55.60;;;;;;4973727;28;20023;-68
2022/05/31 08:40:30;;;;;;;2.45;0.80;;;17.10;55.60;;;;;;4973777;28;20050;-67
2022/05/31 08:42:58;;;;;;;3.00;0.73;;;17.10;55.00;;;;;;4956373;28;20030;-67
2022/05/31 08:45:32;;;;;;;2.45;0.65;;;17.10;54.90;;;;;;4972184;28;20031;-67
2022/05/31 08:48:17;;;;;;;2.22;0.55;;;17.10;54.80;;;;;;4956764;28;20108;-67
2022/05/31 08:56:58;;;;;;;0.95;0.50;;;17.20;54.90;;;;;;4972623;28;20558;-67
2022/05/31 08:59:27;;;;;;;2.83;0.50;;;17.20;55.10;;;;;;4972204;28;20037;-67
2022/05/31 09:01:54;;;;;;;0.90;0.50;;;17.20;54.90;;;;;;4973625;28;20061;-67
2022/05/31 09:04:27;;;;;;;0.88;0.68;;;17.20;54.30;;;;;;4956016;28;20501;-68
2022/05/31 09:06:58;;;;;;;0.50;0.43;;;17.10;53.90;;;;;;4972485;28;20026;-67
2022/05/31 09:09:30;;;;;;;1.73;0.43;;;17.10;53.60;;;;;;4956742;28;20027;-67
2022/05/31 09:12:13;;;;;;;1.17;0.40;;;17.10;52.70;;;;;;4972405;28;20465;-67
2022/05/31 09:14:55;;;;;;;0.52;0.35;;;17.10;52.10;;;;;;4957583;28;20026;-67
2022/05/31 09:17:32;;;;;;;1.60;0.80;;;17.10;52.00;;;;;;4956598;28;20027;-67
2022/05/31 09:20:04;;;;;;;2.20;0.60;;;17.10;51.20;;;;;;4973156;28;20027;-68
2022/05/31 09:22:30;;;;;;;1.00;0.55;;;17.10;50.70;;;;;;4971999;28;20023;-68
2022/05/31 09:24:56;;;;;;;2.17;0.65;;;17.10;51.00;;;;;;4956097;28;20660;-68
2022/05/31 09:27:32;;;;;;;1.40;0.55;;;17.10;49.80;;;;;;4973442;28;20023;-67
2022/05/31 09:30:12;;;;;;;0.40;0.40;;;17.00;48.90;;;;;;4973311;28;20023;-67
2022/05/31 09:32:46;;;;;;;3.35;0.60;;;17.00;49.60;;;;;;4972955;28;20031;-67
2022/05/31 09:35:20;;;;;;;1.17;0.40;;;17.10;49.60;;;;;;4971958;28;20039;-67
2022/05/31 09:38:19;;;;;;;0.82;0.50;;;17.10;49.80;;;;;;4973232;28;20042;-67
2022/05/31 09:40:49;;;;;;;1.50;0.40;;;17.10;49.80;;;;;;4975290;28;20065;-68
2022/05/31 09:43:35;;;;;;;0.30;0.30;;;17.10;49.50;;;;;;4960048;28;20027;-67
2022/05/31 09:46:06;;;;;;;4.10;0.50;;;17.10;49.70;;;;;;4976556;28;20046;-68
2022/05/31 09:48:32;;;;;;;0.80;0.35;;;17.10;50.00;;;;;;4975321;28;20023;-68
2022/05/31 09:51:20;;;;;;;1.08;0.40;;;17.10;50.30;;;;;;4975476;28;20042;-67
2022/05/31 09:59:24;;;;;;;1.02;0.40;;;17.10;50.70;;;;;;4976226;28;20109;-67
2022/05/31 10:01:51;;;;;;;0.85;0.22;;;17.20;51.00;;;;;;4975085;28;20022;-67
2022/05/31 10:04:30;;;;;;;0.63;0.40;;;17.20;51.00;;;;;;4976309;28;20050;-67
2022/05/31 10:07:06;;;;;;;2.88;0.60;;;17.20;50.10;;;;;;4976401;28;20114;-67
2022/05/31 10:09:41;;;;;;;1.55;0.57;;;17.10;50.80;;;;;;4976280;28;20441;-67
2022/05/31 10:12:24;;;;;;;2.90;0.52;;;17.10;50.80;;;;;;4975067;28;20038;-67
2022/05/31 10:14:51;;;;;;;0.65;0.50;;;17.10;51.10;;;;;;4960066;28;20082;-67
2022/05/31 10:17:36;;;;;;;1.05;0.60;;;17.10;50.80;;;;;;4958782;28;20489;-68
2022/05/31 10:20:24;;;;;;;0.93;0.40;;;17.10;51.00;;;;;;4976289;28;20019;-67
2022/05/31 10:22:56;;;;;;;1.50;0.75;;;17.10;51.40;;;;;;4974850;28;20072;-67
2022/05/31 10:25:28;;;;;;;1.20;0.65;;;17.10;51.40;;;;;;4975971;28;20015;-67
2022/05/31 10:28:02;;;;;;;0.98;0.45;;;17.20;51.20;;;;;;4974919;28;20081;-67
2022/05/31 10:30:27;;;;;;;1.13;0.50;;;17.10;51.00;;;;;;4974533;28;20101;-67
2022/05/31 10:32:58;;;;;;;2.97;0.52;;;17.10;51.00;;;;;;4974725;28;20162;-67
2022/05/31 10:35:31;;;;;;;5.30;0.80;;;17.20;50.80;;;;;;4959156;28;20022;-68
2022/05/31 10:38:16;;;;;;;1.65;0.50;;;17.10;50.60;;;;;;4974743;28;20030;-67
2022/05/31 10:40:55;;;;;;;0.63;0.30;;;17.20;50.50;;;;;;4975658;28;20035;-67
2022/05/31 10:43:44;;;;;;;1.13;0.50;;;17.10;50.10;;;;;;4959219;28;20393;-67
2022/05/31 10:46:19;;;;;;;1.65;0.50;;;17.10;50.30;;;;;;4959015;28;20039;-67
2022/05/31 10:48:47;;;;;;;1.50;0.47;;;17.20;50.70;;;;;;4975591;28;20489;-68
2022/05/31 10:51:15;;;;;;;1.73;0.57;;;17.10;51.00;;;;;;4974099;28;20038;-67
2022/05/31 10:54:08;;;;;;;1.02;0.40;;;17.10;50.80;;;;;;4974262;28;20386;-67
2022/05/31 10:56:38;;;;;;;0.82;0.40;;;17.10;51.00;;;;;;4974345;28;20054;-67
2022/05/31 10:59:14;;;;;;;0.40;0.30;;;17.10;52.40;;;;;;4975231;28;20029;-68
2022/05/31 11:01:50;;;;;;;0.30;0.30;;;17.20;51.40;;;;;;4958470;28;20398;-67
2022/05/31 11:04:38;;;;;;;1.10;0.50;;;17.20;51.30;;;;;;4975218;28;20019;-67
2022/05/31 11:07:28;;;;;;;0.55;0.40;;;17.20;51.50;;;;;;4975245;28;20485;-67
2022/05/31 11:13:27;;;;;;;1.33;0.50;;;17.20;50.70;;;;;;4921434;29;20163;-67
2022/05/31 11:15:54;;;;;;;3.08;0.50;;;17.20;50.90;;;;;;4904704;29;20039;-67
2022/05/31 11:18:43;;;;;;;1.48;0.40;;;17.20;49.50;;;;;;4918705;29;20039;-68
2022/05/31 11:21:22;;;;;;;1.13;0.80;;;17.20;49.80;;;;;;4926754;29;20031;-67
2022/05/31 11:24:06;;;;;;;1.35;0.40;;;17.20;50.20;;;;;;4919255;29;20071;-67
2022/05/31 11:26:41;;;;;;;1.25;0.40;;;17.20;50.30;;;;;;4918432;29;20024;-67
2022/05/31 11:29:25;;;;;;;0.30;0.30;;;17.20;50.60;;;;;;4918395;29;20039;-67
2022/05/31 11:32:13;;;;;;;0.75;0.50;;;17.20;51.00;;;;;;4934426;29;20089;-67
2022/05/31 11:35:01;;;;;;;2.03;0.52;;;17.20;51.00;;;;;;4934130;29;20043;-67
2022/05/31 11:37:36;;;;;;;0.93;0.35;;;17.20;50.90;;;;;;4904218;29;20059;-67
2022/05/31 11:40:07;;;;;;;1.05;0.50;;;17.30;50.10;;;;;;4934293;29;20155;-67
2022/05/31 11:42:37;;;;;;;2.05;0.30;;;17.20;50.10;;;;;;4918088;29;20039;-67
2022/05/31 11:45:17;;;;;;;2.78;0.47;;;17.30;50.30;;;;;;4933822;29;20059;-67
2022/05/31 11:48:07;;;;;;;0.60;0.30;;;17.30;50.70;;;;;;4966098;28;20054;-68
2022/05/31 11:50:58;;;;;;;1.73;0.68;;;17.30;50.20;;;;;;4973052;28;20030;-67
2022/05/31 11:53:39;;;;;;;1.98;0.43;;;17.20;50.30;;;;;;4974241;28;20034;-67
2022/05/31 11:56:09;;;;;;;0.63;0.50;;;17.20;50.90;;;;;;4973328;28;20027;-67
2022/05/31 11:58:38;;;;;;;0.98;0.50;;;17.20;51.00;;;;;;4972781;28;20082;-67
2022/05/31 12:01:14;;;;;;;2.55;0.50;;;17.30;51.00;;;;;;4972964;28;20027;-67
2022/05/31 12:03:51;;;;;;;2.15;0.65;;;17.30;50.90;;;;;;4972260;28;20062;-68
2022/05/31 12:06:36;;;;;;;1.40;0.50;;;17.30;50.90;;;;;;4974148;28;20481;-67
2022/05/31 12:09:14;;;;;;;1.38;0.50;;;17.30;50.60;;;;;;4973086;28;20035;-67
2022/05/31 12:11:54;;;;;;;1.02;0.40;;;17.40;51.00;;;;;;4957927;28;20527;-67
2022/05/31 12:14:20;;;;;;;0.93;0.60;;;17.40;50.40;;;;;;4972645;28;20489;-67
2022/05/31 12:16:46;;;;;;;2.22;0.40;;;17.40;50.30;;;;;;4972990;28;20085;-67
2022/05/31 12:19:39;;;;;;;0.82;0.40;;;17.40;50.40;;;;;;4956927;28;20050;-67
2022/05/31 12:22:20;;;;;;;2.13;0.47;;;17.50;50.00;;;;;;4974073;28;20026;-67
2022/05/31 12:24:48;;;;;;;3.58;0.47;;;17.40;49.60;;;;;;4958006;28;20019;-67
2022/05/31 12:27:26;;;;;;;1.50;0.40;;;17.40;49.50;;;;;;4973628;28;20549;-68
2022/05/31 12:30:06;;;;;;;1.02;0.52;;;17.40;48.90;;;;;;4956919;28;20430;-67
2022/05/31 12:32:39;;;;;;;1.15;0.40;;;17.30;49.10;;;;;;4957531;28;20035;-67
2022/05/31 12:35:29;;;;;;;1.00;0.40;;;17.30;49.60;;;;;;4973652;28;20161;-67
2022/05/31 12:38:00;;;;;;;0.73;0.40;;;17.30;50.40;;;;;;4971886;28;20035;-67
2022/05/31 12:40:32;;;;;;;0.73;0.35;;;17.30;50.90;;;;;;4973656;28;20037;-67
2022/05/31 12:42:57;;;;;;;1.48;0.47;;;17.30;51.20;;;;;;4973388;28;20027;-67
2022/05/31 12:45:32;;;;;;;2.40;0.60;;;17.30;51.30;;;;;;4973607;28;20023;-67
2022/05/31 12:48:19;;;;;;;0.80;0.63;;;17.30;51.10;;;;;;4972588;28;20042;-67
2022/05/31 12:50:46;;;;;;;2.45;0.93;;;17.30;51.30;;;;;;4958934;28;20050;-67
2022/05/31 12:53:22;;;;;;;0.52;0.30;;;17.30;51.50;;;;;;4973497;28;20124;-67
2022/05/31 12:55:53;;;;;;;1.58;0.50;;;17.40;51.60;;;;;;4972425;28;20489;-67
2022/05/31 13:00:57;;;;;;;1.20;0.57;;;17.50;51.30;;;;;;4973432;28;20356;-67
2022/05/31 13:03:32;;;;;;;2.20;0.80;;;17.50;51.40;;;;;;4956460;28;20173;-67
2022/05/31 13:06:11;;;;;;;0.63;0.40;;;17.50;50.70;;;;;;4973645;28;20031;-67
2022/05/31 13:08:59;;;;;;;2.17;0.50;;;17.60;50.50;;;;;;4973335;28;20031;-67
2022/05/31 13:19:41;;;;;;;1.35;0.50;;;17.70;50.30;;;;;;4977233;28;20029;-68
2022/05/31 13:22:12;;;;;;;4.18;0.77;;;17.70;50.10;;;;;;4977487;28;20030;-67
2022/05/31 13:24:50;;;;;;;1.20;0.60;;;17.70;50.10;;;;;;4960332;28;20058;-67
2022/05/31 13:27:22;;;;;;;1.30;0.50;;;17.70;49.60;;;;;;4976992;28;20037;-67
2022/05/31 13:30:11;;;;;;;1.02;0.40;;;17.70;49.80;;;;;;4975923;28;20038;-67
2022/05/31 13:32:38;;;;;;;1.30;0.30;;;17.70;49.80;;;;;;4975749;28;20505;-67
2022/05/31 13:35:18;;;;;;;1.02;0.30;;;17.80;49.30;;;;;;4976797;28;20054;-67
2022/05/31 13:37:55;;;;;;;1.55;0.60;;;17.80;49.60;;;;;;4975579;28;20043;-67
2022/05/31 13:40:32;;;;;;;1.58;0.40;;;17.80;49.40;;;;;;4976644;28;20027;-67